createdAt,value
2023-02-27T00:01:43.864Z,59.75
2023-02-27T00:04:16.577Z,59.70
2023-02-27T00:06:49.354Z,59.69
2023-02-27T00:09:23.446Z,59.72
2023-02-27T00:11:56.174Z,59.68
2023-02-27T00:14:28.984Z,59.77
2023-02-27T00:17:01.900Z,59.76
2023-02-27T00:19:34.680Z,59.76
2023-02-27T00:22:07.421Z,59.88
2023-02-27T00:24:41.497Z,59.83
2023-02-27T00:27:14.217Z,59.75
2023-02-27T00:29:47.398Z,59.95
2023-02-27T00:32:20.165Z,59.84
2023-02-27T00:34:53.419Z,59.91
2023-02-27T00:37:26.534Z,59.87
2023-02-27T00:40:00.650Z,59.80
2023-02-27T00:42:33.441Z,59.88
2023-02-27T00:45:07.010Z,59.82
2023-02-27T00:47:39.736Z,59.84
2023-02-27T00:50:12.947Z,59.79
2023-02-27T00:52:45.680Z,59.78
2023-02-27T00:55:19.813Z,59.74
2023-02-27T00:57:52.543Z,59.75
2023-02-27T01:00:25.491Z,59.83
2023-02-27T01:02:59.814Z,59.63
2023-02-27T01:05:32.552Z,59.74
2023-02-27T01:08:05.869Z,59.76
2023-02-27T01:10:40.012Z,59.74
2023-02-27T01:13:12.731Z,59.77
2023-02-27T01:15:45.445Z,59.79
2023-02-27T01:18:18.226Z,59.77
2023-02-27T01:20:53.326Z,59.80
2023-02-27T01:23:26.064Z,59.79
2023-02-27T01:26:00.226Z,59.77
2023-02-27T01:28:32.989Z,59.67
2023-02-27T01:31:05.903Z,59.79
2023-02-27T01:33:38.622Z,59.82
2023-02-27T01:36:11.767Z,59.85
2023-02-27T01:38:46.260Z,59.98
2023-02-27T01:41:21.177Z,59.83
2023-02-27T01:43:54.917Z,59.91
2023-02-27T01:46:28.073Z,59.92
2023-02-27T01:49:03.431Z,59.92
2023-02-27T01:51:41.211Z,59.85
2023-02-27T01:54:16.916Z,59.92
2023-02-27T01:56:51.260Z,59.98
2023-02-27T01:59:26.964Z,60.06
2023-02-27T02:01:59.862Z,59.95
2023-02-27T02:04:40.521Z,59.92
2023-02-27T02:07:15.919Z,59.95
2023-02-27T02:09:51.154Z,59.97
2023-02-27T02:12:27.900Z,59.94
2023-02-27T02:15:00.783Z,59.91
2023-02-27T02:17:40.190Z,59.91
2023-02-27T02:20:35.417Z,59.90
2023-02-27T02:23:23.812Z,59.93
2023-02-27T02:26:11.322Z,59.86
2023-02-27T02:29:11.888Z,59.86
2023-02-27T02:32:02.149Z,59.87
2023-02-27T02:34:50.719Z,59.80
2023-02-27T02:37:39.042Z,59.77
2023-02-27T02:40:20.143Z,59.83
2023-02-27T02:42:57.670Z,59.79
2023-02-27T02:45:34.560Z,59.89
2023-02-27T02:48:13.170Z,59.93
2023-02-27T02:50:51.207Z,59.91
2023-02-27T02:53:36.622Z,59.98
2023-02-27T02:56:18.053Z,59.96
2023-02-27T02:58:58.121Z,59.90
2023-02-27T03:01:33.905Z,59.87
2023-02-27T03:04:09.556Z,60.01
2023-02-27T03:06:45.070Z,59.93
2023-02-27T03:09:21.925Z,59.86
2023-02-27T03:11:58.554Z,59.96
2023-02-27T03:14:35.828Z,59.84
2023-02-27T03:17:16.536Z,59.92
2023-02-27T03:19:55.115Z,59.97
2023-02-27T03:22:31.955Z,60.01
2023-02-27T03:25:07.544Z,59.98
2023-02-27T03:27:45.986Z,59.98
2023-02-27T03:30:21.545Z,59.92
2023-02-27T03:32:56.830Z,59.96
2023-02-27T03:35:36.175Z,59.93
2023-02-27T03:38:12.889Z,59.97
2023-02-27T03:40:49.634Z,59.91
2023-02-27T03:43:32.122Z,59.85
2023-02-27T03:46:09.148Z,59.95
2023-02-27T03:48:44.621Z,60.00
2023-02-27T03:51:18.621Z,60.03
2023-02-27T03:53:53.072Z,60.00
2023-02-27T03:56:28.450Z,60.17
2023-02-27T03:59:04.946Z,60.21
2023-02-27T04:01:38.929Z,60.16
2023-02-27T04:04:13.393Z,60.14
2023-02-27T04:07:25.489Z,60.23
2023-02-27T04:10:06.149Z,60.08
2023-02-27T04:12:57.485Z,60.13
2023-02-27T04:15:38.485Z,60.09
2023-02-27T04:18:18.824Z,60.08
2023-02-27T04:20:55.431Z,60.13
2023-02-27T04:23:34.039Z,60.12
2023-02-27T04:26:15.426Z,60.29
2023-02-27T04:28:53.936Z,60.23
2023-02-27T04:31:31.034Z,60.26
2023-02-27T04:34:07.586Z,60.21
2023-02-27T04:36:42.895Z,60.14
2023-02-27T04:39:20.426Z,60.14
2023-02-27T04:41:55.669Z,60.32
2023-02-27T04:44:30.188Z,60.29
2023-02-27T04:47:05.891Z,60.25
2023-02-27T04:49:41.078Z,60.16
2023-02-27T04:52:15.739Z,60.18
2023-02-27T04:54:52.423Z,60.14
2023-02-27T04:57:28.018Z,60.10
2023-02-27T05:00:05.280Z,60.09
2023-02-27T05:02:42.320Z,60.11
2023-02-27T05:05:17.616Z,60.00
2023-02-27T05:07:52.844Z,60.03
2023-02-27T05:10:30.647Z,59.96
2023-02-27T05:13:06.757Z,59.97
2023-02-27T05:15:41.867Z,60.08
2023-02-27T05:18:17.996Z,59.97
2023-02-27T05:20:55.508Z,60.00
2023-02-27T05:23:35.669Z,60.04
2023-02-27T05:26:12.888Z,59.96
2023-02-27T05:28:51.072Z,60.02
2023-02-27T05:31:27.949Z,60.07
2023-02-27T05:34:05.226Z,59.97
2023-02-27T05:36:40.687Z,60.04
2023-02-27T05:39:15.886Z,59.97
2023-02-27T05:41:50.053Z,60.00
2023-02-27T05:44:24.625Z,59.95
2023-02-27T05:46:59.745Z,59.81
2023-02-27T05:49:35.737Z,59.96
2023-02-27T05:52:11.007Z,59.97
2023-02-27T05:54:47.100Z,60.00
2023-02-27T05:57:23.365Z,59.92
2023-02-27T06:00:00.601Z,59.97
2023-02-27T06:02:33.374Z,59.93
2023-02-27T06:05:08.125Z,59.93
2023-02-27T06:07:40.863Z,59.91
2023-02-27T06:10:14.854Z,59.88
2023-02-27T06:12:47.648Z,59.92
2023-02-27T06:15:20.421Z,59.93
2023-02-27T06:17:53.224Z,59.87
2023-02-27T06:20:27.300Z,59.91
2023-02-27T06:23:00.036Z,59.83
2023-02-27T06:25:32.907Z,59.83
2023-02-27T06:28:05.905Z,59.83
2023-02-27T06:30:38.917Z,59.76
2023-02-27T06:33:12.536Z,59.79
2023-02-27T06:35:48.622Z,59.70
2023-02-27T06:38:21.748Z,59.67
2023-02-27T06:40:55.093Z,59.70
2023-02-27T06:43:27.776Z,59.76
2023-02-27T06:46:00.541Z,59.86
2023-02-27T06:48:33.525Z,59.87
2023-02-27T06:51:07.703Z,60.01
2023-02-27T06:53:40.463Z,59.93
2023-02-27T06:56:13.336Z,59.95
2023-02-27T06:58:46.165Z,60.05
2023-02-27T07:01:19.057Z,60.13
2023-02-27T07:03:52.155Z,60.35
2023-02-27T07:07:32.400Z,60.38
2023-02-27T07:09:18.998Z,60.45
2023-02-27T07:11:52.032Z,60.41
2023-02-27T07:14:25.769Z,60.34
2023-02-27T07:16:59.539Z,60.37
2023-02-27T07:19:33.613Z,60.23
2023-02-27T07:22:09.330Z,60.30
2023-02-27T07:24:42.619Z,60.18
2023-02-27T07:27:15.366Z,60.37
2023-02-27T07:29:48.067Z,60.26
2023-02-27T07:32:20.900Z,60.31
2023-02-27T07:34:54.022Z,60.45
2023-02-27T07:37:28.347Z,60.35
2023-02-27T07:40:01.531Z,60.32
2023-02-27T07:42:37.052Z,60.21
2023-02-27T07:45:12.772Z,60.16
2023-02-27T07:47:45.494Z,60.22
2023-02-27T07:50:18.365Z,60.09
2023-02-27T07:52:52.670Z,59.98
2023-02-27T07:55:25.512Z,59.77
2023-02-27T07:57:58.336Z,59.52
2023-02-27T08:00:31.051Z,59.50
2023-02-27T08:03:03.905Z,59.38
2023-02-27T08:05:36.931Z,59.23
2023-02-27T08:08:11.121Z,59.13
2023-02-27T08:10:43.907Z,59.00
2023-02-27T08:13:20.572Z,58.58
2023-02-27T08:15:54.907Z,58.34
2023-02-27T08:18:27.671Z,58.10
2023-02-27T08:21:00.798Z,57.40
2023-02-27T08:23:35.082Z,56.43
2023-02-27T08:26:10.853Z,55.44
2023-02-27T08:28:43.677Z,53.28
2023-02-27T08:31:16.557Z,51.50
2023-02-27T08:33:55.300Z,51.02
2023-02-27T08:36:30.785Z,49.65
2023-02-27T08:39:04.977Z,48.76
2023-02-27T08:41:38.012Z,48.03
2023-02-27T08:44:11.884Z,47.09
2023-02-27T08:46:44.643Z,46.60
2023-02-27T08:49:19.472Z,47.20
2023-02-27T08:51:55.632Z,48.41
2023-02-27T08:54:29.961Z,48.02
2023-02-27T08:57:02.856Z,48.45
2023-02-27T08:59:35.716Z,47.53
2023-02-27T09:02:08.597Z,46.62
2023-02-27T09:04:41.736Z,45.23
2023-02-27T09:07:14.515Z,44.32
2023-02-27T09:09:50.095Z,43.66
2023-02-27T09:12:23.171Z,45.57
2023-02-27T09:14:55.941Z,45.68
2023-02-27T09:17:28.887Z,44.97
2023-02-27T09:20:01.718Z,44.95
2023-02-27T09:22:34.446Z,45.32
2023-02-27T09:25:09.331Z,45.33
2023-02-27T09:27:42.052Z,45.38
2023-02-27T09:30:14.942Z,45.58
2023-02-27T09:32:47.847Z,45.46
2023-02-27T09:35:21.358Z,45.18
2023-02-27T09:37:54.151Z,44.84
2023-02-27T09:40:29.385Z,46.44
2023-02-27T09:43:04.771Z,45.87
2023-02-27T09:45:39.418Z,45.78
2023-02-27T09:48:16.909Z,46.06
2023-02-27T09:50:52.647Z,47.10
2023-02-27T09:53:30.506Z,46.17
2023-02-27T09:56:08.679Z,45.60
2023-02-27T09:58:51.477Z,48.03
2023-02-27T10:01:27.083Z,47.71
2023-02-27T10:04:05.920Z,47.31
2023-02-27T10:06:44.117Z,46.70
2023-02-27T10:09:27.525Z,46.61
2023-02-27T10:12:18.154Z,45.00
2023-02-27T10:14:54.893Z,43.71
2023-02-27T10:17:29.931Z,43.88
2023-02-27T10:20:04.963Z,45.55
2023-02-27T10:22:39.944Z,47.14
2023-02-27T10:25:29.718Z,47.72
2023-02-27T10:28:12.477Z,49.47
2023-02-27T10:30:48.644Z,51.54
2023-02-27T10:33:28.068Z,51.23
2023-02-27T10:36:04.037Z,49.30
2023-02-27T10:38:38.380Z,50.49
2023-02-27T10:41:12.934Z,51.23
2023-02-27T10:43:45.816Z,50.55
2023-02-27T10:46:22.695Z,48.91
2023-02-27T10:48:55.527Z,50.49
2023-02-27T10:51:30.417Z,50.71
2023-02-27T10:54:17.121Z,48.88
2023-02-27T10:56:52.276Z,47.03
2023-02-27T10:59:27.042Z,44.63
2023-02-27T11:02:02.195Z,43.80
2023-02-27T11:04:35.853Z,45.06
2023-02-27T11:07:10.768Z,45.59
2023-02-27T11:09:43.635Z,45.18
2023-02-27T11:12:21.910Z,44.24
2023-02-27T11:14:55.819Z,43.96
2023-02-27T11:17:32.297Z,43.64
2023-02-27T11:20:07.269Z,43.79
2023-02-27T11:22:41.705Z,42.34
2023-02-27T11:25:20.008Z,42.79
2023-02-27T11:27:53.135Z,45.77
2023-02-27T11:30:28.082Z,47.22
2023-02-27T11:33:02.879Z,48.18
2023-02-27T11:35:38.046Z,46.69
2023-02-27T11:38:20.170Z,45.05
2023-02-27T11:40:55.405Z,44.16
2023-02-27T11:43:29.330Z,42.80
2023-02-27T11:46:31.801Z,41.87
2023-02-27T11:49:01.530Z,41.02
2023-02-27T11:51:52.346Z,40.90
2023-02-27T11:54:34.995Z,42.80
2023-02-27T11:57:13.064Z,43.90
2023-02-27T11:59:48.255Z,45.52
2023-02-27T12:02:24.148Z,45.08
2023-02-27T12:05:01.244Z,44.23
2023-02-27T12:07:39.602Z,43.08
2023-02-27T12:10:15.153Z,42.27
2023-02-27T12:12:49.215Z,41.41
2023-02-27T12:15:31.658Z,40.80
2023-02-27T12:18:14.233Z,40.53
2023-02-27T12:20:51.964Z,39.88
2023-02-27T12:23:27.893Z,39.84
2023-02-27T12:26:05.305Z,39.88
2023-02-27T12:28:43.170Z,40.62
2023-02-27T12:31:39.845Z,41.42
2023-02-27T12:34:21.692Z,41.97
2023-02-27T12:36:58.396Z,41.96
2023-02-27T12:39:32.292Z,42.54
2023-02-27T12:42:24.643Z,44.18
2023-02-27T12:45:08.435Z,45.52
2023-02-27T12:47:46.542Z,46.06
2023-02-27T12:50:20.081Z,45.88
2023-02-27T12:53:02.119Z,46.12
2023-02-27T12:55:39.376Z,48.47
2023-02-27T12:58:24.403Z,49.07
2023-02-27T13:01:00.955Z,47.71
2023-02-27T13:03:36.599Z,48.01
2023-02-27T13:06:16.806Z,48.94
2023-02-27T13:08:56.981Z,49.71
2023-02-27T13:11:35.739Z,49.60
2023-02-27T13:14:12.641Z,49.72
2023-02-27T13:16:47.954Z,49.58
2023-02-27T13:19:25.311Z,47.81
2023-02-27T13:22:03.528Z,47.22
2023-02-27T13:24:44.812Z,48.33
2023-02-27T13:27:21.285Z,49.87
2023-02-27T13:30:01.180Z,52.00
2023-02-27T13:32:44.124Z,53.85
2023-02-27T13:35:25.870Z,55.70
2023-02-27T13:38:01.722Z,55.15
2023-02-27T13:40:40.245Z,54.89
2023-02-27T13:43:29.484Z,55.23
2023-02-27T13:46:03.046Z,55.39
2023-02-27T13:48:40.070Z,55.93
2023-02-27T13:51:28.215Z,56.91
2023-02-27T13:54:19.137Z,57.49
2023-02-27T13:57:07.547Z,57.86
2023-02-27T13:59:44.741Z,58.30
2023-02-27T14:02:58.144Z,58.37
2023-02-27T14:05:36.778Z,58.36
2023-02-27T14:08:11.612Z,58.19
2023-02-27T14:10:55.446Z,58.12
2023-02-27T14:13:46.891Z,58.36
2023-02-27T14:16:34.603Z,58.34
2023-02-27T14:19:23.145Z,58.27
2023-02-27T14:21:59.192Z,58.18
2023-02-27T14:24:38.258Z,58.44
2023-02-27T14:27:17.561Z,58.43
2023-02-27T14:29:52.223Z,58.50
2023-02-27T14:32:26.785Z,58.16
2023-02-27T14:35:00.436Z,57.95
2023-02-27T14:37:37.499Z,57.92
2023-02-27T14:40:28.054Z,57.79
2023-02-27T14:43:11.163Z,57.78
2023-02-27T14:45:44.184Z,57.69
2023-02-27T14:48:25.258Z,57.57
2023-02-27T14:51:00.173Z,57.68
2023-02-27T14:53:34.924Z,57.69
2023-02-27T14:56:07.963Z,57.74
2023-02-27T14:58:40.959Z,57.68
2023-02-27T15:01:17.758Z,57.72
2023-02-27T15:03:56.285Z,57.56
2023-02-27T15:06:36.063Z,57.71
2023-02-27T15:09:19.405Z,57.54
2023-02-27T15:12:03.589Z,57.52
2023-02-27T15:14:43.696Z,57.42
2023-02-27T15:17:17.573Z,57.28
2023-02-27T15:19:52.129Z,57.19
2023-02-27T15:22:38.611Z,57.12
2023-02-27T15:25:27.567Z,57.23
2023-02-27T15:28:07.083Z,57.08
2023-02-27T15:30:40.144Z,57.05
2023-02-27T15:33:18.297Z,57.04
2023-02-27T15:35:51.500Z,56.98
2023-02-27T15:38:26.134Z,57.00
2023-02-27T15:40:59.874Z,57.04
2023-02-27T15:43:34.440Z,57.08
2023-02-27T15:46:07.890Z,57.15
2023-02-27T15:48:40.940Z,57.26
2023-02-27T15:51:13.948Z,57.35
2023-02-27T15:53:50.300Z,57.32
2023-02-27T15:56:27.000Z,57.44
2023-02-27T15:59:02.214Z,57.35
2023-02-27T16:01:39.198Z,57.31
2023-02-27T16:04:20.700Z,57.31
2023-02-27T16:06:59.212Z,57.32
2023-02-27T16:09:33.387Z,57.26
2023-02-27T16:12:13.615Z,57.19
2023-02-27T16:14:48.108Z,57.25
2023-02-27T16:17:25.001Z,57.22
2023-02-27T16:20:00.740Z,57.09
2023-02-27T16:22:35.151Z,57.14
2023-02-27T16:25:12.385Z,57.09
2023-02-27T16:27:49.660Z,57.11
2023-02-27T16:30:24.179Z,57.02
2023-02-27T16:33:01.985Z,57.08
2023-02-27T16:35:35.469Z,57.22
2023-02-27T16:38:09.864Z,57.28
2023-02-27T16:40:42.927Z,57.26
2023-02-27T16:43:15.937Z,57.32
2023-02-27T16:45:52.948Z,57.38
2023-02-27T16:48:25.981Z,57.29
2023-02-27T16:50:58.958Z,57.32
2023-02-27T16:53:31.901Z,57.16
2023-02-27T16:56:05.055Z,57.15
2023-02-27T16:58:38.016Z,57.26
2023-02-27T17:01:13.887Z,57.01
2023-02-27T17:03:47.461Z,56.96
2023-02-27T17:06:20.571Z,57.03
2023-02-27T17:08:53.646Z,56.92
2023-02-27T17:11:26.848Z,56.96
2023-02-27T17:13:59.791Z,56.91
2023-02-27T17:16:34.204Z,56.70
2023-02-27T17:19:07.202Z,56.81
2023-02-27T17:21:40.177Z,56.73
2023-02-27T17:24:13.133Z,56.69
2023-02-27T17:26:46.100Z,56.71
2023-02-27T17:29:22.091Z,56.60
2023-02-27T17:31:57.627Z,56.60
2023-02-27T17:34:31.163Z,56.64
2023-02-27T17:37:04.448Z,56.60
2023-02-27T17:39:37.532Z,56.58
2023-02-27T17:42:12.762Z,56.68
2023-02-27T17:44:46.153Z,56.62
2023-02-27T17:47:20.705Z,56.49
2023-02-27T17:49:53.919Z,56.43
2023-02-27T17:52:27.404Z,56.39
2023-02-27T17:55:00.321Z,56.47
2023-02-27T17:57:36.108Z,56.54
2023-02-27T18:00:10.103Z,56.50
2023-02-27T18:02:45.730Z,56.49
2023-02-27T18:05:18.675Z,56.55
2023-02-27T18:07:52.558Z,56.54
2023-02-27T18:10:26.419Z,56.58
2023-02-27T18:12:59.405Z,56.53
2023-02-27T18:15:32.635Z,56.58
2023-02-27T18:18:07.114Z,56.53
2023-02-27T18:20:40.478Z,56.57
2023-02-27T18:23:14.528Z,56.47
2023-02-27T18:25:54.147Z,56.64
2023-02-27T18:28:28.048Z,56.40
2023-02-27T18:31:01.246Z,56.47
2023-02-27T18:33:35.757Z,56.35
2023-02-27T18:36:08.910Z,56.36
2023-02-27T18:38:41.904Z,56.40
2023-02-27T18:41:14.954Z,56.34
2023-02-27T18:43:47.937Z,56.40
2023-02-27T18:46:21.290Z,56.39
2023-02-27T18:48:55.642Z,56.35
2023-02-27T18:51:29.002Z,56.46
2023-02-27T18:54:01.963Z,56.36
2023-02-27T18:56:34.933Z,56.36
2023-02-27T18:59:12.203Z,56.30
2023-02-27T19:01:45.295Z,56.31
2023-02-27T19:04:25.441Z,56.35
2023-02-27T19:06:58.468Z,56.21
2023-02-27T19:09:32.922Z,56.18
2023-02-27T19:12:06.105Z,56.20
2023-02-27T19:14:39.266Z,56.21
2023-02-27T19:17:12.281Z,56.25
2023-02-27T19:19:47.308Z,56.21
2023-02-27T19:22:20.459Z,56.12
2023-02-27T19:24:53.495Z,56.23
2023-02-27T19:27:27.113Z,56.20
2023-02-27T19:30:03.017Z,56.05
2023-02-27T19:32:37.483Z,56.15
2023-02-27T19:35:20.213Z,56.05
2023-02-27T19:37:58.168Z,56.08
2023-02-27T19:40:31.306Z,55.97
2023-02-27T19:43:04.296Z,55.87
2023-02-27T19:45:41.110Z,55.97
2023-02-27T19:48:18.900Z,55.86
2023-02-27T19:50:53.252Z,55.83
2023-02-27T19:53:26.502Z,55.89
2023-02-27T19:56:00.163Z,55.88
2023-02-27T19:58:35.889Z,55.96
2023-02-27T20:01:12.475Z,55.98
2023-02-27T20:03:45.590Z,55.84
2023-02-27T20:06:21.019Z,55.79
2023-02-27T20:08:54.004Z,55.67
2023-02-27T20:11:29.803Z,55.70
2023-02-27T20:14:02.814Z,55.73
2023-02-27T20:16:37.050Z,55.72
2023-02-27T20:19:12.953Z,55.63
2023-02-27T20:21:48.036Z,55.70
2023-02-27T20:24:22.358Z,55.69
2023-02-27T20:26:58.954Z,55.61
2023-02-27T20:29:32.287Z,55.73
2023-02-27T20:32:05.565Z,55.72
2023-02-27T20:34:39.091Z,55.74
2023-02-27T20:37:13.638Z,55.75
2023-02-27T20:39:46.705Z,55.75
2023-02-27T20:42:19.714Z,55.85
2023-02-27T20:44:53.310Z,55.91
2023-02-27T20:47:26.347Z,55.84
2023-02-27T20:49:59.214Z,56.08
2023-02-27T20:52:33.449Z,56.11
2023-02-27T20:55:06.622Z,56.18
2023-02-27T20:57:39.429Z,56.13
2023-02-27T21:00:12.839Z,56.31
2023-02-27T21:02:45.711Z,56.20
2023-02-27T21:05:18.593Z,56.37
2023-02-27T21:07:52.767Z,56.35
2023-02-27T21:10:25.703Z,56.35
2023-02-27T21:12:58.508Z,56.42
2023-02-27T21:15:32.537Z,56.30
2023-02-27T21:18:09.148Z,56.20
2023-02-27T21:20:42.509Z,56.05
2023-02-27T21:23:18.879Z,56.09
2023-02-27T21:25:51.653Z,56.16
2023-02-27T21:28:24.388Z,56.12
2023-02-27T21:30:57.207Z,56.27
2023-02-27T21:33:29.994Z,56.24
2023-02-27T21:36:02.729Z,56.12
2023-02-27T21:38:36.852Z,56.11
2023-02-27T21:41:11.686Z,56.16
2023-02-27T21:43:44.659Z,56.20
2023-02-27T21:46:17.488Z,56.17
2023-02-27T21:48:50.370Z,56.03
2023-02-27T21:51:38.349Z,56.10
2023-02-27T21:54:15.603Z,56.00
2023-02-27T21:56:49.576Z,56.04
2023-02-27T21:59:22.574Z,55.93
2023-02-27T22:01:55.809Z,56.01
2023-02-27T22:04:28.792Z,55.93
2023-02-27T22:07:01.615Z,55.90
2023-02-27T22:09:42.756Z,55.78
2023-02-27T22:12:20.342Z,55.88
2023-02-27T22:14:53.060Z,55.82
2023-02-27T22:17:26.207Z,55.97
2023-02-27T22:19:58.921Z,56.00
2023-02-27T22:22:31.645Z,55.95
2023-02-27T22:25:06.133Z,56.11
2023-02-27T22:27:39.122Z,56.04
2023-02-27T22:30:12.602Z,56.00
2023-02-27T22:32:45.330Z,55.92
2023-02-27T22:35:18.296Z,55.92
2023-02-27T22:37:51.042Z,55.85
2023-02-27T22:40:25.191Z,55.90
2023-02-27T22:42:58.015Z,55.89
2023-02-27T22:45:30.695Z,55.92
2023-02-27T22:48:03.401Z,55.92
2023-02-27T22:50:36.144Z,55.82
2023-02-27T22:53:09.169Z,55.84
2023-02-27T22:55:43.334Z,55.88
2023-02-27T22:58:16.022Z,55.81
2023-02-27T23:00:48.761Z,55.79
2023-02-27T23:03:21.476Z,55.70
2023-02-27T23:05:54.309Z,55.67
2023-02-27T23:08:27.163Z,55.62
2023-02-27T23:11:01.383Z,55.76
2023-02-27T23:13:34.600Z,55.76
2023-02-27T23:16:11.678Z,55.78
2023-02-27T23:18:46.574Z,55.82
2023-02-27T23:21:21.111Z,55.81
2023-02-27T23:23:54.534Z,55.87
2023-02-27T23:26:28.929Z,55.88
2023-02-27T23:29:01.688Z,55.83
2023-02-27T23:31:35.431Z,55.75
2023-02-27T23:34:08.396Z,55.80
2023-02-27T23:36:41.450Z,55.80
2023-02-27T23:39:14.185Z,55.83
2023-02-27T23:41:49.238Z,55.85
2023-02-27T23:44:21.979Z,55.90
2023-02-27T23:46:54.987Z,55.87
2023-02-27T23:49:27.797Z,55.73
2023-02-27T23:52:00.612Z,55.79
2023-02-27T23:54:33.365Z,55.74
2023-02-27T23:57:07.493Z,55.63
2023-02-27T23:59:40.252Z,55.66
